Time;durP1;ratioP1;P1;durP2;ratioP2;P2;SDS_P1;SDS_P2;PMS_P1;PMS_P2;Temp;Humidity;BMP_temperature;BMP_pressure;BME280_temperature;BME280_humidity;BME280_pressure;Samples;Min_cycle;Max_cycle;Signal;HPM_P1;HPM_P2
2024/01/07 00:00:20;;;;;;;10.73;8.53;;;;;;;6.72;100.00;99084.26;1452204;90;22601;-77
2024/01/07 00:02:47;;;;;;;10.23;8.13;;;;;;;6.73;100.00;99084.61;1459804;90;22465;-77
2024/01/07 00:05:13;;;;;;;11.53;8.57;;;;;;;6.78;100.00;99083.62;1438837;90;21566;-77
2024/01/07 00:07:39;;;;;;;11.23;7.83;;;;;;;6.77;100.00;99091.20;1457821;90;22239;-77
2024/01/07 00:10:06;;;;;;;9.23;7.80;;;;;;;6.76;100.00;99086.92;1451755;90;21294;-77
2024/01/07 00:12:32;;;;;;;10.47;8.40;;;;;;;6.75;100.00;99091.83;1455390;90;21530;-77
2024/01/07 00:14:58;;;;;;;11.17;8.27;;;;;;;6.72;100.00;99084.26;1451441;90;21508;-77
2024/01/07 00:17:24;;;;;;;10.63;8.33;;;;;;;6.69;100.00;99080.63;1451635;90;21353;-78
2024/01/07 00:19:51;;;;;;;10.73;7.97;;;;;;;6.68;100.00;99086.87;1452517;90;21634;-77
2024/01/07 00:22:17;;;;;;;12.23;9.77;;;;;;;6.64;100.00;99082.89;1452227;90;21450;-77
2024/01/07 00:24:44;;;;;;;12.67;9.77;;;;;;;6.63;100.00;99077.30;1458795;90;21413;-77
2024/01/07 00:27:10;;;;;;;13.53;9.50;;;;;;;6.60;100.00;99074.17;1456237;90;21427;-77
2024/01/07 00:29:37;;;;;;;12.97;9.17;;;;;;;6.58;100.00;99073.49;1456596;90;21531;-77
2024/01/07 00:32:03;;;;;;;12.10;9.53;;;;;;;6.55;100.00;99072.81;1458495;90;21382;-77
2024/01/07 00:34:29;;;;;;;12.63;9.00;;;;;;;6.55;100.00;99075.94;1439161;90;21556;-79
2024/01/07 00:36:56;;;;;;;13.90;9.23;;;;;;;6.56;100.00;99073.66;1435040;90;21545;-78
2024/01/07 00:39:22;;;;;;;12.23;8.83;;;;;;;6.58;100.00;99067.73;1455583;90;21398;-78
2024/01/07 00:41:48;;;;;;;12.70;8.83;;;;;;;6.61;100.00;99070.05;1451663;90;21591;-78
2024/01/07 00:44:14;;;;;;;11.47;9.27;;;;;;;6.63;100.00;99075.99;1448780;90;22321;-79
2024/01/07 00:46:40;;;;;;;10.90;8.27;;;;;;;6.65;100.00;99074.04;1453332;90;21472;-79
2024/01/07 00:49:06;;;;;;;11.60;8.87;;;;;;;6.67;100.00;99073.38;1456359;90;21464;-79
2024/01/07 00:51:32;;;;;;;12.23;8.97;;;;;;;6.69;100.00;99066.16;1457951;90;22321;-79
2024/01/07 00:53:58;;;;;;;11.80;9.30;;;;;;;6.70;100.00;99070.46;1457730;90;21396;-79
2024/01/07 00:56:28;;;;;;;11.33;8.67;;;;;;;6.73;100.00;99064.04;1456521;90;21397;-79
2024/01/07 00:58:54;;;;;;;12.47;8.77;;;;;;;6.73;100.00;99065.35;1450377;90;21700;-78
2024/01/07 01:01:20;;;;;;;14.23;9.50;;;;;;;6.72;100.00;99064.53;1455797;90;22262;-78
2024/01/07 01:03:47;;;;;;;14.20;9.20;;;;;;;6.73;100.00;99060.95;1453423;90;21442;-79
2024/01/07 01:06:13;;;;;;;14.80;8.87;;;;;;;6.74;100.00;99061.27;1454251;90;21733;-79
2024/01/07 01:08:40;;;;;;;11.87;9.10;;;;;;;6.73;100.00;99058.78;1450969;90;21435;-79
2024/01/07 01:11:11;;;;;;;14.47;10.20;;;;;;;6.76;100.00;99059.31;1457617;90;21560;-79
2024/01/07 01:13:37;;;;;;;14.70;10.58;;;;;;;6.75;100.00;99055.02;1450960;90;21405;-77
2024/01/07 01:16:05;;;;;;;12.53;8.77;;;;;;;6.76;100.00;99047.95;1450774;90;21398;-80
2024/01/07 01:18:33;;;;;;;13.33;9.43;;;;;;;6.74;100.00;99045.49;1449932;90;21441;-79
2024/01/07 01:20:59;;;;;;;14.60;9.27;;;;;;;6.72;100.00;99046.13;1457628;90;21537;-80
2024/01/07 01:23:25;;;;;;;11.83;9.00;;;;;;;6.72;100.00;99040.87;1459279;90;22410;-78
2024/01/07 01:25:51;;;;;;;10.83;8.07;;;;;;;6.71;100.00;99039.23;1451895;90;21572;-77
2024/01/07 01:28:17;;;;;;;8.40;7.13;;;;;;;6.72;100.00;99035.61;1445995;90;21441;-77
2024/01/07 01:30:43;;;;;;;11.23;8.10;;;;;;;6.72;100.00;99029.04;1453349;90;22596;-77
2024/01/07 01:33:10;;;;;;;10.53;8.30;;;;;;;6.74;100.00;99034.16;1450473;90;22291;-77
2024/01/07 01:35:36;;;;;;;9.93;7.40;;;;;;;6.73;100.00;99032.02;1455227;90;21302;-78
2024/01/07 01:38:02;;;;;;;10.73;7.90;;;;;;;6.73;100.00;99027.23;1454988;90;21560;-78
2024/01/07 01:40:28;;;;;;;10.20;7.53;;;;;;;6.72;100.00;99026.41;1452290;90;22336;-78
2024/01/07 01:42:54;;;;;;;8.87;7.80;;;;;;;6.71;100.00;99027.41;1453533;90;21412;-78
2024/01/07 01:45:21;;;;;;;13.67;7.73;;;;;;;6.72;100.00;99022.47;1447801;90;21553;-78
2024/01/07 01:47:48;;;;;;;13.73;8.27;;;;;;;6.76;100.00;99026.45;1463478;90;21648;-77
2024/01/07 01:50:15;;;;;;;11.50;7.43;;;;;;;6.77;100.00;99022.83;1447086;90;21440;-77
2024/01/07 01:52:44;;;;;;;12.17;8.40;;;;;;;6.75;100.00;99020.84;1448389;90;21567;-79
2024/01/07 01:55:11;;;;;;;9.67;7.97;;;;;;;6.76;100.00;99014.61;1453870;90;21405;-80
2024/01/07 01:57:39;;;;;;;9.30;7.17;;;;;;;6.77;100.00;99024.14;1452924;90;22362;-81
2024/01/07 02:00:08;;;;;;;11.17;7.87;;;;;;;6.74;100.00;99013.13;1443942;90;21383;-81
2024/01/07 02:02:34;;;;;;;9.30;8.27;;;;;;;6.71;100.00;99012.94;1445579;90;21463;-79
2024/01/07 02:05:03;;;;;;;9.60;8.13;;;;;;;6.68;100.00;99009.31;1456879;90;22226;-80
2024/01/07 02:07:31;;;;;;;11.43;8.47;;;;;;;6.67;100.00;99014.22;1453415;90;21620;-79
2024/01/07 02:09:57;;;;;;;9.30;7.87;;;;;;;6.66;100.00;99008.64;1451591;90;21450;-79
2024/01/07 02:12:23;;;;;;;11.77;6.97;;;;;;;6.67;100.00;99005.52;1456097;90;21509;-79
2024/01/07 02:14:49;;;;;;;9.00;7.17;;;;;;;6.65;100.00;99004.38;1451675;90;21368;-79
2024/01/07 02:17:16;;;;;;;9.93;7.57;;;;;;;6.64;100.00;99003.20;1446118;90;21456;-79
2024/01/07 02:19:42;;;;;;;8.50;7.43;;;;;;;6.63;100.00;99007.64;1455557;90;21560;-79
2024/01/07 02:22:08;;;;;;;9.20;7.37;;;;;;;6.64;100.00;99007.14;1453457;90;22329;-79
2024/01/07 02:24:35;;;;;;;9.63;7.13;;;;;;;6.64;100.00;99000.08;1456200;90;21449;-79
2024/01/07 02:27:02;;;;;;;8.27;6.53;;;;;;;6.63;100.00;99009.45;1454973;90;21672;-79
2024/01/07 02:29:29;;;;;;;9.00;7.07;;;;;;;6.63;100.00;98995.81;1443032;90;21410;-78
2024/01/07 02:31:55;;;;;;;10.07;7.53;;;;;;;6.61;100.00;99001.70;1450600;90;21608;-79
2024/01/07 02:34:21;;;;;;;8.77;6.40;;;;;;;6.57;100.00;98996.44;1455037;90;22425;-79
2024/01/07 02:36:47;;;;;;;7.93;6.80;;;;;;;6.54;100.00;99002.83;1452557;90;21917;-78
2024/01/07 02:39:13;;;;;;;6.53;5.73;;;;;;;6.53;100.00;99002.97;1457159;90;21397;-78
2024/01/07 02:41:40;;;;;;;7.57;6.53;;;;;;;6.51;100.00;98995.26;1452661;90;21346;-78
2024/01/07 02:44:06;;;;;;;7.83;5.90;;;;;;;6.51;100.00;99003.64;1448559;90;21382;-78
2024/01/07 02:46:32;;;;;;;8.90;5.97;;;;;;;6.50;100.00;98996.72;1442172;90;21412;-78
2024/01/07 02:48:58;;;;;;;8.47;7.17;;;;;;;6.51;100.00;98995.75;1458456;90;21368;-78
2024/01/07 02:51:25;;;;;;;7.93;5.87;;;;;;;6.52;100.00;98992.14;1453455;90;21397;-79
2024/01/07 02:53:51;;;;;;;8.20;6.60;;;;;;;6.50;100.00;98992.31;1451718;90;22375;-80
2024/01/07 02:56:17;;;;;;;9.23;6.30;;;;;;;6.52;100.00;98995.58;1452002;90;21958;-80
2024/01/07 02:58:43;;;;;;;7.30;5.17;;;;;;;6.54;100.00;98992.81;1449400;90;21553;-80
2024/01/07 03:01:10;;;;;;;6.83;5.90;;;;;;;6.54;100.00;98990.19;1433604;90;22247;-80
2024/01/07 03:03:37;;;;;;;5.93;5.10;;;;;;;6.50;100.00;98994.94;1453305;90;21464;-80
2024/01/07 03:06:03;;;;;;;7.00;5.50;;;;;;;6.42;100.00;98987.50;1449742;90;22344;-79
2024/01/07 03:08:29;;;;;;;7.50;5.77;;;;;;;6.40;100.00;98986.33;1462210;90;21567;-80
2024/01/07 03:10:55;;;;;;;7.40;6.20;;;;;;;6.40;100.00;98986.33;1446167;90;21390;-78
2024/01/07 03:13:21;;;;;;;5.37;4.83;;;;;;;6.37;100.00;98987.14;1456134;90;22181;-80
2024/01/07 03:15:47;;;;;;;9.67;6.73;;;;;;;6.37;100.00;98987.14;1453216;90;21552;-79
2024/01/07 03:18:13;;;;;;;8.23;6.33;;;;;;;6.31;100.00;98984.64;1457961;90;21383;-79
2024/01/07 03:20:40;;;;;;;8.17;6.23;;;;;;;6.31;100.00;98985.45;1452249;90;22476;-79
2024/01/07 03:23:06;;;;;;;27.37;19.00;;;;;;;6.32;100.00;98987.59;1455360;90;21556;-79
2024/01/07 03:25:32;;;;;;;9.80;7.43;;;;;;;6.34;100.00;98979.07;1451154;90;22270;-79
2024/01/07 03:27:58;;;;;;;16.90;10.67;;;;;;;6.36;100.00;98983.69;1446599;90;21479;-80
2024/01/07 03:30:24;;;;;;;10.60;7.03;;;;;;;6.36;100.00;98985.47;1455810;90;21368;-79
2024/01/07 03:32:50;;;;;;;7.50;5.53;;;;;;;6.35;100.00;98982.52;1445576;90;22462;-79
2024/01/07 03:35:16;;;;;;;6.97;6.27;;;;;;;6.34;100.00;98981.70;1451643;90;21471;-79
2024/01/07 03:37:42;;;;;;;6.93;4.77;;;;;;;6.31;100.00;98980.70;1441928;90;21376;-80
2024/01/07 03:40:12;;;;;;;5.70;4.63;;;;;;;6.33;100.00;98974.31;1445436;90;22291;-79
2024/01/07 03:42:38;;;;;;;8.00;4.87;;;;;;;6.33;100.00;98978.25;1458420;90;21472;-79
2024/01/07 03:45:05;;;;;;;4.97;4.37;;;;;;;6.32;100.00;98977.90;1446711;90;21609;-78
2024/01/07 03:47:32;;;;;;;10.77;5.53;;;;;;;6.29;100.00;98980.84;1454051;90;21361;-78
2024/01/07 03:49:58;;;;;;;6.07;5.03;;;;;;;6.23;100.00;98976.20;1448017;90;22241;-79
2024/01/07 03:52:24;;;;;;;5.23;4.33;;;;;;;6.18;100.00;98975.02;1449567;90;21435;-79
2024/01/07 03:54:50;;;;;;;6.57;5.00;;;;;;;6.13;100.00;98982.07;1454870;90;21527;-80
2024/01/07 03:57:17;;;;;;;7.13;4.87;;;;;;;6.09;100.00;98983.34;1453038;90;22189;-80
2024/01/07 03:59:43;;;;;;;10.63;7.67;;;;;;;6.07;100.00;98984.83;1439239;90;21427;-80
2024/01/07 04:02:09;;;;;;;5.90;4.43;;;;;;;6.01;100.00;98979.34;1457648;90;21404;-79
2024/01/07 04:04:35;;;;;;;5.67;3.80;;;;;;;5.98;100.00;98980.97;1429332;90;21419;-80
2024/01/07 04:07:02;;;;;;;6.57;3.63;;;;;;;5.93;100.00;98987.13;1453118;90;21596;-79
2024/01/07 04:09:28;;;;;;;5.50;3.43;;;;;;;5.89;100.00;98974.30;1453633;90;21578;-77
2024/01/07 04:11:54;;;;;;;8.27;5.13;;;;;;;5.77;100.00;98978.16;1450208;90;21479;-77
2024/01/07 04:14:20;;;;;;;3.97;3.23;;;;;;;5.77;100.00;98983.41;1453511;90;21457;-78
2024/01/07 04:16:47;;;;;;;5.47;3.73;;;;;;;5.67;100.00;98977.44;1448264;90;21353;-78
2024/01/07 04:19:13;;;;;;;5.03;3.77;;;;;;;5.55;100.00;98978.16;1447377;90;22429;-78
2024/01/07 04:21:39;;;;;;;3.80;3.23;;;;;;;5.56;100.00;98969.80;1450840;90;21435;-78
2024/01/07 04:24:05;;;;;;;6.83;3.30;;;;;;;5.49;100.00;98971.36;1448487;90;21546;-78
2024/01/07 04:26:31;;;;;;;4.17;3.47;;;;;;;5.45;100.00;98973.95;1450377;90;22292;-78
2024/01/07 04:28:58;;;;;;;4.47;3.53;;;;;;;5.41;100.00;98971.63;1450857;90;21517;-78
2024/01/07 04:31:24;;;;;;;7.67;3.40;;;;;;;5.41;100.00;98978.20;1450856;90;21375;-78
2024/01/07 04:33:50;;;;;;;4.13;2.87;;;;;;;5.36;100.00;98981.75;1458164;90;22255;-77
2024/01/07 04:36:16;;;;;;;5.13;2.90;;;;;;;5.34;100.00;98977.62;1446643;90;21345;-77
2024/01/07 04:38:42;;;;;;;4.70;3.20;;;;;;;5.34;100.00;98975.81;1457652;90;22232;-77
2024/01/07 04:41:08;;;;;;;3.80;2.37;;;;;;;5.34;100.00;98975.81;1439463;90;21441;-76
2024/01/07 04:43:36;;;;;;;7.80;4.70;;;;;;;5.25;100.00;98978.03;1460117;90;21509;-77
2024/01/07 04:46:02;;;;;;;8.20;3.93;;;;;;;5.24;100.00;98984.26;1456786;90;21397;-77
2024/01/07 04:48:29;;;;;;;3.33;2.60;;;;;;;5.19;100.00;98979.94;1452122;90;21412;-78
2024/01/07 04:50:55;;;;;;;7.60;2.37;;;;;;;5.11;100.00;98983.78;1460052;90;21421;-78
2024/01/07 04:53:21;;;;;;;5.87;3.00;;;;;;;4.94;100.00;98980.16;1455464;90;22240;-78
2024/01/07 04:55:47;;;;;;;3.27;2.30;;;;;;;4.93;100.00;98979.34;1459547;90;21368;-78
2024/01/07 04:58:13;;;;;;;2.37;1.97;;;;;;;4.82;100.00;98979.53;1455394;90;21464;-79
2024/01/07 05:00:39;;;;;;;3.30;2.20;;;;;;;4.76;100.00;98981.42;1453862;90;21527;-78
2024/01/07 05:03:05;;;;;;;3.87;2.47;;;;;;;4.76;100.00;98981.42;1455017;90;21398;-78
2024/01/07 05:05:31;;;;;;;2.50;2.20;;;;;;;4.74;100.00;98976.31;1449109;90;21524;-79
2024/01/07 05:08:00;;;;;;;3.50;2.60;;;;;;;4.70;100.00;98975.46;1455255;90;21464;-79
2024/01/07 05:10:25;;;;;;;6.63;2.40;;;;;;;4.67;100.00;98975.75;1457353;90;21470;-79
2024/01/07 05:12:51;;;;;;;4.07;2.70;;;;;;;4.61;100.00;98975.84;1452162;90;21433;-79
2024/01/07 05:15:18;;;;;;;5.07;2.53;;;;;;;4.63;100.00;98975.69;1436783;90;21390;-78
2024/01/07 05:17:44;;;;;;;2.37;1.83;;;;;;;4.55;100.00;98974.30;1445987;90;21427;-79
2024/01/07 05:20:11;;;;;;;2.97;2.13;;;;;;;4.55;100.00;98976.92;1450483;90;21516;-79
2024/01/07 05:22:37;;;;;;;2.80;2.10;;;;;;;4.47;100.00;98970.59;1455002;90;21582;-79
2024/01/07 05:25:04;;;;;;;2.70;1.90;;;;;;;4.43;100.00;98974.48;1437566;90;21427;-78
2024/01/07 05:27:30;;;;;;;2.87;1.80;;;;;;;4.36;100.00;98972.08;1449346;90;21309;-79
2024/01/07 05:29:57;;;;;;;5.40;2.50;;;;;;;4.33;100.00;98972.37;1449094;90;22382;-78
2024/01/07 05:32:23;;;;;;;2.80;1.80;;;;;;;4.29;100.00;98974.45;1436514;90;21361;-79
2024/01/07 05:34:50;;;;;;;5.53;2.90;;;;;;;4.26;100.00;98975.23;1450259;90;21325;-78
2024/01/07 05:37:16;;;;;;;1.67;1.10;;;;;;;4.24;100.00;98971.92;1447391;90;21390;-78
2024/01/07 05:39:43;;;;;;;12.83;6.30;;;;;;;4.22;100.00;98973.84;1448348;90;21457;-79
2024/01/07 05:42:09;;;;;;;6.37;3.43;;;;;;;4.25;100.00;98978.80;1450054;90;22410;-79
2024/01/07 05:44:35;;;;;;;6.87;3.07;;;;;;;4.26;100.00;98979.16;1446840;90;21398;-78
2024/01/07 05:47:03;;;;;;;4.53;2.50;;;;;;;4.27;100.00;98989.97;1453561;90;21545;-79
2024/01/07 05:49:29;;;;;;;3.00;1.70;;;;;;;4.28;100.00;98985.06;1452228;90;21427;-79
2024/01/07 05:51:55;;;;;;;4.50;1.63;;;;;;;4.29;100.00;98989.34;1455891;90;21413;-79
2024/01/07 05:54:22;;;;;;;2.97;1.87;;;;;;;4.24;100.00;98988.95;1451691;90;21434;-78
2024/01/07 05:56:48;;;;;;;2.60;1.77;;;;;;;4.24;100.00;98988.45;1454289;90;21486;-79
2024/01/07 05:59:15;;;;;;;2.53;1.57;;;;;;;4.21;100.00;98974.83;1453440;90;21345;-79
2024/01/07 06:01:41;;;;;;;2.10;1.70;;;;;;;4.21;100.00;98980.06;1452538;90;21382;-79
2024/01/07 06:04:07;;;;;;;1.40;0.90;;;;;;;4.19;100.00;98980.19;1451585;90;21463;-79
2024/01/07 06:06:34;;;;;;;1.30;1.07;;;;;;;4.20;100.00;98981.02;1450592;90;21406;-79
2024/01/07 06:09:01;;;;;;;1.30;0.80;;;;;;;4.09;100.00;98981.20;1449766;90;21441;-79
2024/01/07 06:11:27;;;;;;;1.20;1.07;;;;;;;4.00;100.00;98986.31;1458617;90;22125;-79
2024/01/07 06:13:53;;;;;;;1.30;0.90;;;;;;;3.96;100.00;98991.47;1449768;90;21390;-79
2024/01/07 06:16:19;;;;;;;2.83;1.23;;;;;;;3.88;100.00;98990.52;1434297;90;21375;-79
2024/01/07 06:18:45;;;;;;;2.10;1.00;;;;;;;3.77;100.00;98990.19;1455784;90;21346;-79
2024/01/07 06:21:12;;;;;;;1.17;0.90;;;;;;;3.76;100.00;98989.84;1453021;90;21376;-80
2024/01/07 06:23:38;;;;;;;1.60;1.00;;;;;;;3.72;100.00;98983.25;1450974;90;22064;-80
2024/01/07 06:26:05;;;;;;;1.23;0.70;;;;;;;3.68;100.00;98980.07;1452713;90;21295;-80
2024/01/07 06:28:33;;;;;;;1.77;1.20;;;;;;;3.72;100.00;98980.64;1453547;90;21435;-79
2024/01/07 06:31:01;;;;;;;1.47;0.93;;;;;;;3.64;100.00;98987.05;1448415;90;21700;-80
2024/01/07 06:33:27;;;;;;;0.63;0.50;;;;;;;3.65;100.00;98986.06;1458265;89;21666;-83
2024/01/07 06:35:54;;;;;;;1.27;0.63;;;;;;;3.47;100.00;98988.06;1450611;90;21392;-80
2024/01/07 06:38:20;;;;;;;2.57;1.57;;;;;;;3.53;100.00;98986.69;1458420;90;21375;-78
2024/01/07 06:40:46;;;;;;;2.20;1.20;;;;;;;3.50;100.00;98989.09;1453321;90;21549;-78
2024/01/07 06:43:12;;;;;;;2.07;1.37;;;;;;;3.50;100.00;98994.33;1451632;90;22234;-78
2024/01/07 06:45:38;;;;;;;2.57;1.00;;;;;;;3.43;100.00;98987.19;1455124;90;21901;-78
2024/01/07 06:48:06;;;;;;;1.43;0.83;;;;;;;3.34;100.00;98985.73;1452897;90;21508;-78
2024/01/07 06:50:33;;;;;;;0.60;0.60;;;;;;;3.37;100.00;98992.00;1450597;90;21361;-79
2024/01/07 06:52:59;;;;;;;2.00;1.20;;;;;;;3.31;100.00;98994.31;1449219;90;21472;-80
2024/01/07 06:55:25;;;;;;;1.60;0.57;;;;;;;3.22;100.00;98988.59;1458084;90;22278;-80
2024/01/07 06:57:51;;;;;;;1.30;0.60;;;;;;;3.20;100.00;98991.84;1448415;90;21538;-81
2024/01/07 07:00:17;;;;;;;0.87;0.70;;;;;;;3.17;100.00;98992.94;1446317;90;21472;-80
2024/01/07 07:02:44;;;;;;;0.70;0.47;;;;;;;3.19;100.00;98991.00;1452828;90;21545;-79
2024/01/07 07:05:10;;;;;;;1.20;0.70;;;;;;;3.16;100.00;98984.28;1455889;90;22306;-79
2024/01/07 07:07:36;;;;;;;0.80;0.53;;;;;;;3.16;100.00;98982.97;1452753;90;21353;-78
2024/01/07 07:10:03;;;;;;;1.57;1.10;;;;;;;3.15;100.00;98990.45;1447598;90;21591;-78
2024/01/07 07:12:29;;;;;;;22.40;6.93;;;;;;;3.17;100.00;98986.41;1453942;90;21389;-80
2024/01/07 07:14:56;;;;;;;22.27;7.10;;;;;;;3.20;100.00;98986.63;1454127;90;22999;-80
2024/01/07 07:17:23;;;;;;;9.40;3.50;;;;;;;3.18;100.00;98984.61;1446403;90;21442;-79
2024/01/07 07:19:49;;;;;;;15.40;6.27;;;;;;;3.12;100.00;98991.20;1452563;90;21360;-80
2024/01/07 07:22:15;;;;;;;9.77;4.87;;;;;;;3.17;100.00;98998.17;1436975;90;22374;-80
2024/01/07 07:24:42;;;;;;;8.47;3.60;;;;;;;3.12;100.00;98997.26;1453272;90;21396;-79
2024/01/07 07:27:08;;;;;;;1.90;0.87;;;;;;;3.04;100.00;98993.18;1460560;90;21383;-81
2024/01/07 07:29:34;;;;;;;1.40;0.93;;;;;;;3.00;100.00;99000.95;1450231;90;22204;-80
2024/01/07 07:32:01;;;;;;;12.47;6.67;;;;;;;2.98;100.00;98998.95;1451493;90;22012;-78
2024/01/07 07:34:27;;;;;;;8.10;4.03;;;;;;;3.12;100.00;98995.95;1453643;90;21353;-81
2024/01/07 07:36:53;;;;;;;6.57;3.43;;;;;;;3.13;100.00;99002.82;1449919;90;22269;-83
2024/01/07 07:39:20;;;;;;;3.43;2.00;;;;;;;3.05;100.00;99002.70;1453084;90;21472;-81
2024/01/07 07:41:46;;;;;;;1.17;0.90;;;;;;;3.02;100.00;98995.58;1457042;90;21843;-82
2024/01/07 07:44:12;;;;;;;1.83;0.90;;;;;;;2.87;100.00;99004.28;1455491;90;22240;-83
2024/01/07 07:46:38;;;;;;;1.13;0.90;;;;;;;2.82;100.00;99002.53;1457319;90;21338;-83
2024/01/07 07:49:06;;;;;;;3.87;1.00;;;;;;;2.74;100.00;98993.25;1453283;90;22142;-83
2024/01/07 07:51:32;;;;;;;2.53;1.70;;;;;;;2.76;100.00;98997.36;1456114;90;21509;-82
2024/01/07 07:53:59;;;;;;;2.77;1.90;;;;;;;2.74;100.00;99003.70;1438166;90;22418;-84
2024/01/07 07:56:25;;;;;;;1.30;0.80;;;;;;;2.71;100.00;99006.92;1453620;90;21301;-85
2024/01/07 07:58:51;;;;;;;1.00;0.80;;;;;;;2.67;100.00;99009.44;1441151;90;21368;-83
2024/01/07 08:01:18;;;;;;;1.87;0.90;;;;;;;2.67;100.00;99009.44;1454292;90;21531;-84
2024/01/07 08:03:44;;;;;;;1.90;1.23;;;;;;;2.65;100.00;99010.06;1450700;90;21427;-85
2024/01/07 08:06:14;;;;;;;2.00;1.20;;;;;;;2.66;100.00;99005.66;1453598;90;21519;-83
2024/01/07 08:08:40;;;;;;;3.43;2.17;;;;;;;2.67;100.00;99006.82;1449180;90;22664;-84
2024/01/07 08:11:08;;;;;;;5.30;1.37;;;;;;;2.74;100.00;99001.26;1436663;90;22780;-84
2024/01/07 08:13:37;;;;;;;2.40;1.43;;;;;;;2.66;100.00;99001.26;1455172;90;21732;-82
2024/01/07 08:16:10;;;;;;;2.13;1.40;;;;;;;2.64;100.00;99007.09;1450085;90;22225;-82
2024/01/07 08:18:36;;;;;;;1.80;1.33;;;;;;;2.68;100.00;99003.27;1429560;91;22620;-85
2024/01/07 08:21:02;;;;;;;2.90;1.80;;;;;;;2.63;100.00;99009.36;1426246;91;22173;-83
2024/01/07 08:23:28;;;;;;;1.93;1.47;;;;;;;2.60;100.00;99008.32;1432746;91;23096;-85
2024/01/07 08:25:54;;;;;;;3.93;1.57;;;;;;;2.57;100.00;99011.20;1437744;90;22114;-84
2024/01/07 08:28:21;;;;;;;3.10;1.47;;;;;;;2.57;100.00;99008.58;1454729;90;22166;-80
2024/01/07 08:30:48;;;;;;;13.27;5.10;;;;;;;2.62;100.00;99007.72;1450387;90;22952;-82
2024/01/07 08:33:15;;;;;;;3.13;1.67;;;;;;;2.62;100.00;99012.94;1449193;90;22257;-82
2024/01/07 08:35:41;;;;;;;11.03;4.77;;;;;;;2.62;100.00;99012.94;1451645;90;21471;-81
2024/01/07 08:38:07;;;;;;;7.23;3.13;;;;;;;2.75;100.00;99014.50;1455917;90;22467;-83
2024/01/07 08:40:34;;;;;;;6.00;2.77;;;;;;;2.67;100.00;99014.66;1454555;90;22117;-82
2024/01/07 08:43:00;;;;;;;4.67;2.37;;;;;;;2.66;100.00;99017.42;1458739;90;22232;-84
2024/01/07 08:45:26;;;;;;;2.40;1.83;;;;;;;2.63;100.00;99015.07;1451759;90;21390;-84
2024/01/07 08:47:52;;;;;;;3.03;1.73;;;;;;;2.73;100.00;99017.70;1454578;90;22315;-83
2024/01/07 08:50:18;;;;;;;4.37;2.13;;;;;;;2.76;100.00;99022.19;1451872;90;23173;-81
2024/01/07 08:52:46;;;;;;;5.83;2.50;;;;;;;2.69;100.00;99020.59;1437717;90;22220;-84
2024/01/07 08:55:12;;;;;;;2.07;1.37;;;;;;;2.62;100.00;99020.78;1440027;90;21383;-83
2024/01/07 08:57:39;;;;;;;2.73;1.43;;;;;;;2.62;100.00;99020.78;1449064;90;21450;-85
2024/01/07 09:00:07;;;;;;;2.60;1.73;;;;;;;2.60;100.00;99017.95;1449773;90;22182;-84
2024/01/07 09:02:33;;;;;;;1.80;1.60;;;;;;;2.60;100.00;99017.95;1377846;90;21288;-84
2024/01/07 09:05:00;;;;;;;5.23;1.63;;;;;;;2.71;100.00;99027.00;1530897;90;21332;-84
2024/01/07 09:07:26;;;;;;;2.70;1.60;;;;;;;2.63;100.00;99026.34;1379342;90;21598;-85
2024/01/07 09:09:55;;;;;;;3.63;2.03;;;;;;;2.63;100.00;99026.34;1379453;90;21383;-83
2024/01/07 09:12:20;;;;;;;2.43;1.60;;;;;;;2.75;100.00;99036.70;1527155;90;22176;-83
2024/01/07 09:14:47;;;;;;;2.60;1.60;;;;;;;2.70;100.00;99027.48;1379737;90;22127;-84
2024/01/07 09:17:13;;;;;;;2.83;1.50;;;;;;;2.71;100.00;99029.12;1379161;90;21243;-82
2024/01/07 09:19:39;;;;;;;2.10;1.30;;;;;;;2.80;100.00;99024.08;1379414;90;21573;-82
2024/01/07 09:22:05;;;;;;;3.40;2.07;;;;;;;2.80;100.00;99024.08;1366738;91;22080;-82
2024/01/07 09:24:32;;;;;;;3.40;1.90;;;;;;;2.84;100.00;99026.76;1379169;89;21509;-82
2024/01/07 09:26:58;;;;;;;1.97;1.30;;;;;;;2.93;100.00;99025.50;1379915;90;21266;-82
2024/01/07 09:29:24;;;;;;;2.87;1.40;;;;;;;2.83;100.00;99016.80;1365741;91;21324;-81
2024/01/07 09:31:50;;;;;;;3.43;1.67;;;;;;;2.78;100.00;99010.31;1379613;90;22153;-83
2024/01/07 09:34:16;;;;;;;4.07;1.97;;;;;;;2.80;100.00;99011.83;1453040;90;22264;-82
2024/01/07 09:36:47;;;;;;;2.33;1.47;;;;;;;2.90;100.00;99006.62;1384330;90;21390;-83
2024/01/07 09:39:13;;;;;;;1.77;1.20;;;;;;;2.93;100.00;99001.13;1443742;90;21397;-83
2024/01/07 09:41:39;;;;;;;3.23;2.30;;;;;;;3.02;100.00;99006.88;1439398;90;21405;-83
2024/01/07 09:44:07;;;;;;;4.60;2.00;;;;;;;3.13;100.00;99000.20;1450231;90;21490;-83
2024/01/07 09:46:36;;;;;;;3.13;1.70;;;;;;;3.05;100.00;99000.08;1459843;90;21532;-83
2024/01/07 09:49:03;;;;;;;2.47;1.90;;;;;;;3.16;100.00;98994.73;1438512;90;21412;-83
2024/01/07 09:51:31;;;;;;;9.70;2.53;;;;;;;3.45;100.00;98996.53;1450310;90;22359;-84
2024/01/07 09:54:04;;;;;;;2.40;1.87;;;;;;;3.51;100.00;98993.84;1450250;90;21377;-82
2024/01/07 09:56:38;;;;;;;5.73;2.47;;;;;;;3.76;100.00;98984.62;1535344;90;21199;-84
2024/01/07 09:59:04;;;;;;;3.17;2.33;;;;;;;3.81;100.00;98981.11;1395299;91;21401;-86
2024/01/07 10:01:32;;;;;;;2.30;1.93;;;;;;;3.92;100.00;98980.13;1379462;90;21508;-86
2024/01/07 10:03:59;;;;;;;3.17;2.00;;;;;;;3.91;100.00;98982.39;1377558;90;21354;-83
2024/01/07 10:06:26;;;;;;;5.07;2.73;;;;;;;4.20;100.00;98976.62;1440000;90;21354;-82
2024/01/07 10:08:52;;;;;;;4.83;3.03;;;;;;;4.34;100.00;98962.22;1453294;90;21421;-85
2024/01/07 10:13:56;;;;;;;2.40;1.80;;;;;;;4.48;100.00;98968.80;1487180;85;25654;-82
2024/01/07 10:16:22;;;;;;;2.70;1.90;;;;;;;4.35;100.00;98964.38;1458422;88;21419;-83
2024/01/07 10:18:48;;;;;;;4.03;2.30;;;;;;;4.24;100.00;98969.30;1481167;87;21544;-84
2024/01/07 10:21:15;;;;;;;2.37;1.67;;;;;;;4.45;100.00;98959.42;1471197;87;21417;-84
2024/01/07 10:23:41;;;;;;;3.33;1.90;;;;;;;4.51;100.00;98964.08;1467197;87;21495;-85
2024/01/07 10:26:07;;;;;;;2.83;2.40;;;;;;;4.30;100.00;98966.11;1473999;86;21626;-82
2024/01/07 10:28:33;;;;;;;2.67;1.90;;;;;;;4.43;100.00;98961.38;1467825;88;21351;-85
2024/01/07 10:31:00;;;;;;;2.50;1.97;;;;;;;4.10;100.00;98963.20;1467558;88;21522;-82
2024/01/07 10:33:33;;;;;;;3.40;2.10;;;;;;;4.01;100.00;98960.47;1443943;88;21519;-83
2024/01/07 10:36:03;;;;;;;2.40;1.60;;;;;;;4.01;100.00;98973.56;1465130;88;21559;-87
2024/01/07 10:38:30;;;;;;;3.52;2.30;;;;;;;3.87;100.00;98970.07;1469901;88;21588;-83
2024/01/07 10:40:59;;;;;;;7.97;2.90;;;;;;;4.04;100.00;98964.11;1473962;86;22387;-81
2024/01/07 10:43:28;;;;;;;2.83;2.10;;;;;;;4.21;100.00;98964.35;1394734;87;21322;-84
2024/01/07 10:45:55;;;;;;;2.80;2.10;;;;;;;4.11;100.00;98953.89;1554080;88;21300;-84
2024/01/07 10:48:24;;;;;;;2.90;2.27;;;;;;;4.19;100.00;98972.83;1387419;88;22327;-82
2024/01/07 10:50:55;;;;;;;3.22;2.00;;;;;;;4.45;100.00;98949.44;1388485;89;21533;-81
2024/01/07 10:53:26;;;;;;;3.23;2.30;;;;;;;4.38;100.00;98954.92;1391674;88;21359;-82
2024/01/07 10:56:01;;;;;;;2.70;1.70;;;;;;;4.65;100.00;98955.41;1554496;88;21507;-85
2024/01/07 10:58:28;;;;;;;2.33;1.83;;;;;;;4.18;100.00;98951.55;1498175;88;21359;-81
2024/01/07 11:00:55;;;;;;;2.87;2.27;;;;;;;4.09;100.00;98946.68;1392201;88;22116;-79
2024/01/07 11:03:39;;;;;;;3.43;2.50;;;;;;;4.40;100.00;98952.50;1468913;87;21359;-79
2024/01/07 11:06:13;;;;;;;3.03;2.33;;;;;;;4.25;100.00;98950.81;1470618;88;21449;-80
2024/01/07 11:09:00;;;;;;;6.53;3.30;;;;;;;4.32;100.00;98936.67;1546953;88;21325;-80
2024/01/07 11:11:34;;;;;;;4.93;2.50;;;;;;;4.38;100.00;98937.41;1413311;87;22408;-80
2024/01/07 11:14:02;;;;;;;2.13;1.93;;;;;;;4.24;100.00;98930.02;1414383;88;21512;-80
2024/01/07 11:16:44;;;;;;;2.57;1.90;;;;;;;4.28;100.00;98938.73;1394688;88;22037;-83
2024/01/07 11:19:14;;;;;;;2.70;1.90;;;;;;;4.37;100.00;98935.73;1391339;88;21316;-81
2024/01/07 11:21:40;;;;;;;5.62;2.37;;;;;;;4.34;100.00;98928.17;1369322;92;21443;-81
2024/01/07 11:24:07;;;;;;;2.17;1.63;;;;;;;4.14;100.00;98935.27;1390306;88;21479;-80
2024/01/07 11:26:34;;;;;;;2.50;2.00;;;;;;;4.07;100.00;98935.02;1383580;89;21339;-81
2024/01/07 11:29:01;;;;;;;2.70;2.13;;;;;;;3.89;100.00;98939.36;1386049;89;21297;-82
2024/01/07 11:31:50;;;;;;;4.00;2.07;;;;;;;3.83;100.00;98945.16;1385849;89;22256;-88